Home   Weather   Louisville   Past weeks
Flag for USA

Past Weather in Louisville, New York, USA — Yesterday and Last 2 Weeks

Currently: 60 °F. Sunny. (Weather station: Adirondack Regional Airport, USA). See more current weather

Past Weather in Louisville — Graph

°F

Louisville Temperature Yesterday

Maximum temperature yesterday: 77 °F (at 2:51 pm)
Minimum temperature yesterday: 59 °F (at 11:57 pm)
Average temperature yesterday: 66 °F

High & Low Weather Summary for the Past Weeks

 TemperatureHumidityPressure
High84 °F (Jul 9, 3:51 pm)100% (Jul 18, 1:30 am)30.19 "Hg (Jul 18, 1:30 am)
Low44 °F (Jul 19, 4:08 am)44% (Jul 14, 2:51 pm)29.65 "Hg (Jul 16, 3:51 pm)
Average66 °F82%29.97 "Hg
* Reported Jul 9 7:51 am — Jul 24 7:00 am, Louisville. Weather by CustomWeather, © 2024

Note: Actual official high and low records may vary slightly from our data, if they occured in-between our weather recording intervals... More about our weather records

Louisville Weather History for the Previous 24 Hours

Scroll right to see more
 ConditionsComfort  
Time TempWeatherWind HumidityBarometerVisibility
7:00 am
Wed, Jul 24
55 °FFog.No wind96%30.15 "Hg3 mi
6:22 am53 °FFog.No wind96%30.15 "Hg0 mi
6:02 am52 °FFog.No wind93%30.14 "Hg1 mi
4:51 am53 °FFog.No wind93%30.12 "Hg0 mi
4:06 am53 °FFog.No wind96%30.14 "Hg1 mi
3:40 am53 °FFog.3 mph93%30.14 "Hg1 mi
3:32 am54 °FFog.3 mph97%30.14 "Hg2 mi
3:19 am54 °FFog.No wind97%30.15 "Hg1 mi
2:51 am55 °FClear.No wind93%30.13 "Hg7 mi
2:16 am55 °FFog.No wind93%30.14 "Hg3 mi
2:02 am56 °FFog.No wind93%30.14 "Hg2 mi
1:36 am56 °FFog.No wind97%30.15 "Hg1 mi
1:02 am58 °FFog.No wind93%30.15 "Hg5 mi
12:55 am58 °FFog.No wind93%30.15 "Hg2 mi
12:43 am58 °FFog.No wind93%30.15 "Hg2 mi
11:57 pm
Tue, Jul 23
59 °FFog.No wind96%30.15 "Hg3 mi
10:51 pm61 °FPassing clouds.No wind97%30.14 "Hg7 mi
9:51 pm63 °FOvercast.3 mph90%30.14 "Hg10 mi
8:51 pm64 °FMostly cloudy.No wind90%30.13 "Hg10 mi
7:51 pm66 °FMostly cloudy.5 mph90%30.11 "Hg9 mi
7:16 pm67 °FLight rain. Fog.7 mph87%30.12 "Hg5 mi
7:04 pm67 °FRain. Fog.5 mph87%30.11 "Hg3 mi
6:08 pm72 °FMostly cloudy.5 mph68%30.09 "Hg10 mi
5:51 pm74 °FBroken clouds.7 mph62%30.07 "Hg10 mi
4:51 pm77 °FScattered clouds.10 mph54%30.06 "Hg10 mi
3:51 pm76 °FPartly sunny.8 mph58%30.06 "Hg10 mi
2:51 pm77 °FScattered clouds.No wind50%30.06 "Hg10 mi
1:51 pm73 °FPartly sunny.No wind64%30.06 "Hg10 mi
12:51 pm71 °FScattered clouds.No wind71%30.07 "Hg10 mi
11:51 am70 °FBroken clouds.No wind73%30.07 "Hg10 mi
11:36 am69 °FCloudy.3 mph79%30.09 "Hg10 mi
11:22 am68 °FPartly sunny.3 mph82%30.09 "Hg10 mi
10:51 am67 °FMore clouds than sun.3 mph85%30.07 "Hg10 mi
10:16 am66 °FCloudy.3 mph87%30.08 "Hg10 mi
9:13 am64 °FMostly cloudy.3 mph94%30.08 "Hg10 mi
8:36 am64 °FMore clouds than sun.No wind94%30.07 "Hg10 mi
8:12 am64 °FLight rain. Fog.No wind94%30.07 "Hg6 mi
Weather by CustomWeather, © 2024

See weather overview